Terminal Aerodrome Forecast
Issued by NWS

Home | Current Version | Previous Version | Text Only | Print | Product List | Glossary On
Versions: 1 2 3 4 5 6 7 8 9 10 11 12 13 14
000
FTUS45 KABQ 252340
TAFAEG
TAF
KAEG 252340Z 2600/2624 VRB06KT P6SM SCT090 SCT150 BKN200
     FM260130 31007KT P6SM VCSH BKN090
     FM260800 VRB10G17KT P6SM VCSH BKN090
     FM261100 34005KT P6SM VCSH BKN100
     FM261400 16007KT P6SM SCT100
     FM262230 25009KT P6SM VCSH SCT100 BKN140=

USA.gov is the U.S. government's official web portal to all federal, state and local government web resources and services.